sensor_id;sensor_type;location;lat;lon;timestamp;pressure;altitude;pressure_sealevel;temperature;humidity
46174;BME280;31897;52.420;13.498;2023-02-02T00:02:36;100400;;;1.98854;36.13467
46174;BME280;31897;52.420;13.498;2023-02-02T00:05:36;100400;;;2.09191;35.97227
46174;BME280;31897;52.420;13.498;2023-02-02T00:08:37;100400;;;2.11322;35.85089
46174;BME280;31897;52.420;13.498;2023-02-02T00:11:38;100400;;;2.19947;35.76356
46174;BME280;31897;52.420;13.498;2023-02-02T00:14:39;100400;;;2.27021;35.64746
46174;BME280;31897;52.420;13.498;2023-02-02T00:17:40;100400;;;2.2673;35.60129
46174;BME280;31897;52.420;13.498;2023-02-02T00:20:45;100400;;;2.33901;35.46203
46174;BME280;31897;52.420;13.498;2023-02-02T00:23:46;100400;;;2.30832;35.43344
46174;BME280;31897;52.420;13.498;2023-02-02T00:26:49;100400;;;2.28668;35.42787
46174;BME280;31897;52.420;13.498;2023-02-02T00:29:50;100400;;;2.28474;35.47986
46174;BME280;31897;52.420;13.498;2023-02-02T00:32:51;100400;;;2.35387;35.44456
46174;BME280;31897;52.420;13.498;2023-02-02T00:35:52;100400;;;2.45691;35.33959
46174;BME280;31897;52.420;13.498;2023-02-02T00:38:53;100400;;;2.36388;35.38671
46174;BME280;31897;52.420;13.498;2023-02-02T00:41:53;100400;;;2.39909;35.46146
46174;BME280;31897;52.420;13.498;2023-02-02T00:44:54;100400;;;2.55511;35.22306
46174;BME280;31897;52.420;13.498;2023-02-02T00:47:55;100400;;;2.50633;35.27555
46174;BME280;31897;52.420;13.498;2023-02-02T00:50:56;100400;;;2.46628;35.33949
46174;BME280;31897;52.420;13.498;2023-02-02T00:53:57;100400;;;2.45206;35.38008
46174;BME280;31897;52.420;13.498;2023-02-02T00:56:58;100400;;;2.49825;35.35653
46174;BME280;31897;52.420;13.498;2023-02-02T00:59:58;100400;;;2.52151;35.48921
46174;BME280;31897;52.420;13.498;2023-02-02T01:02:59;100400;;;2.43462;35.65754
46174;BME280;31897;52.420;13.498;2023-02-02T01:06:00;100400;;;2.51053;35.56442
46174;BME280;31897;52.420;13.498;2023-02-02T01:09:01;100400;;;2.48695;35.63974
46174;BME280;31897;52.420;13.498;2023-02-02T01:12:02;100400;;;2.5228;35.77809
46174;BME280;31897;52.420;13.498;2023-02-02T01:15:04;100400;;;2.52571;35.91094
46174;BME280;31897;52.420;13.498;2023-02-02T01:18:05;100400;;;2.51602;36.25187
46174;BME280;31897;52.420;13.498;2023-02-02T01:21:07;100400;;;2.52183;36.48289
46174;BME280;31897;52.420;13.498;2023-02-02T01:24:08;100400;;;2.50019;36.4715
46174;BME280;31897;52.420;13.498;2023-02-02T01:27:09;100400;;;2.45142;36.93963
46174;BME280;31897;52.420;13.498;2023-02-02T01:30:10;100400;;;2.38585;37.17675
46174;BME280;31897;52.420;13.498;2023-02-02T01:33:11;100400;;;2.42299;37.29202
46174;BME280;31897;52.420;13.498;2023-02-02T01:36:14;100400;;;2.3613;37.51748
46174;BME280;31897;52.420;13.498;2023-02-02T01:39:15;100400;;;2.45013;37.55748
46174;BME280;31897;52.420;13.498;2023-02-02T01:42:18;100400;;;2.39134;37.55775
46174;BME280;31897;52.420;13.498;2023-02-02T01:45:20;100400;;;2.44431;37.5806
46174;BME280;31897;52.420;13.498;2023-02-02T01:48:24;100400;;;2.43785;37.56908
46174;BME280;31897;52.420;13.498;2023-02-02T01:51:27;100400;;;2.42687;37.41325
46174;BME280;31897;52.420;13.498;2023-02-02T01:54:30;100400;;;2.39586;37.43072
46174;BME280;31897;52.420;13.498;2023-02-02T01:57:33;100400;;;2.48081;37.32637
46174;BME280;31897;52.420;13.498;2023-02-02T02:00:36;100400;;;2.45691;37.38423
46174;BME280;31897;52.420;13.498;2023-02-02T02:03:39;100400;;;2.34256;37.71959
46174;BME280;31897;52.420;13.498;2023-02-02T02:06:40;100400;;;2.31478;38.11216
46174;BME280;31897;52.420;13.498;2023-02-02T02:09:41;100400;;;2.38068;38.23315
46174;BME280;31897;52.420;13.498;2023-02-02T02:12:41;100500;;;2.35032;38.42946
46174;BME280;31897;52.420;13.498;2023-02-02T02:15:44;100400;;;2.38036;38.43515
46174;BME280;31897;52.420;13.498;2023-02-02T02:18:49;100400;;;2.34741;38.55065
46174;BME280;31897;52.420;13.498;2023-02-02T02:21:53;100500;;;2.32221;38.56225
46174;BME280;31897;52.420;13.498;2023-02-02T02:25:02;100400;;;2.33449;38.53337
46174;BME280;31897;52.420;13.498;2023-02-02T02:28:29;100500;;;2.35807;38.4179
46174;BME280;31897;52.420;13.498;2023-02-02T02:31:54;100500;;;2.40103;38.36007
46174;BME280;31897;52.420;13.498;2023-02-02T02:35:00;100500;;;2.50601;38.10575
46174;BME280;31897;52.420;13.498;2023-02-02T02:38:05;100500;;;2.59548;37.90333
46174;BME280;31897;52.420;13.498;2023-02-02T02:41:09;100500;;;2.64555;37.8627
46174;BME280;31897;52.420;13.498;2023-02-02T02:44:13;100500;;;2.69723;37.81051
46174;BME280;31897;52.420;13.498;2023-02-02T02:47:16;100500;;;2.70918;37.87978
46174;BME280;31897;52.420;13.498;2023-02-02T02:50:18;100500;;;2.75763;37.73515
46174;BME280;31897;52.420;13.498;2023-02-02T02:53:19;100500;;;2.66816;37.66044
46174;BME280;31897;52.420;13.498;2023-02-02T02:56:21;100500;;;2.70305;37.65451
46174;BME280;31897;52.420;13.498;2023-02-02T02:59:28;100500;;;2.68948;37.70656
46174;BME280;31897;52.420;13.498;2023-02-02T03:02:34;100500;;;2.59451;37.96108
46174;BME280;31897;52.420;13.498;2023-02-02T03:05:41;100500;;;2.6336;37.86275
46174;BME280;31897;52.420;13.498;2023-02-02T03:08:47;100500;;;2.77282;37.75242
46174;BME280;31897;52.420;13.498;2023-02-02T03:11:52;100500;;;2.73922;37.55035
46174;BME280;31897;52.420;13.498;2023-02-02T03:14:54;100500;;;2.7628;37.54446
46174;BME280;31897;52.420;13.498;2023-02-02T03:17:55;100500;;;2.78509;37.49813
46174;BME280;31897;52.420;13.498;2023-02-02T03:20:56;100500;;;2.80609;37.39401
46174;BME280;31897;52.420;13.498;2023-02-02T03:23:57;100500;;;2.66558;37.51026
46174;BME280;31897;52.420;13.498;2023-02-02T03:26:58;100500;;;2.72566;37.31931
46174;BME280;31897;52.420;13.498;2023-02-02T03:29:59;100500;;;2.59096;37.41243
46174;BME280;31897;52.420;13.498;2023-02-02T03:33:00;100500;;;2.77379;37.22083
46174;BME280;31897;52.420;13.498;2023-02-02T03:36:00;100500;;;2.78767;37.20919
46174;BME280;31897;52.420;13.498;2023-02-02T03:39:01;100500;;;2.78735;37.11095
46174;BME280;31897;52.420;13.498;2023-02-02T03:42:02;100600;;;2.85454;36.94295
46174;BME280;31897;52.420;13.498;2023-02-02T03:45:03;100600;;;2.81739;37.08188
46174;BME280;31897;52.420;13.498;2023-02-02T03:48:05;100600;;;2.8316;37.00667
46174;BME280;31897;52.420;13.498;2023-02-02T03:51:06;100600;;;2.81868;37.11077
46174;BME280;31897;52.420;13.498;2023-02-02T03:54:07;100600;;;2.77605;37.09946
46174;BME280;31897;52.420;13.498;2023-02-02T03:57:08;100600;;;2.72113;37.14023
46174;BME280;31897;52.420;13.498;2023-02-02T04:00:09;100600;;;2.68722;37.11153
46174;BME280;31897;52.420;13.498;2023-02-02T04:03:10;100600;;;2.78186;36.92028
46174;BME280;31897;52.420;13.498;2023-02-02T04:06:11;100600;;;2.83064;36.7408
46174;BME280;31897;52.420;13.498;2023-02-02T04:09:12;100600;;;2.8765;36.66534
46174;BME280;31897;52.420;13.498;2023-02-02T04:12:12;100600;;;2.92173;36.54362
46174;BME280;31897;52.420;13.498;2023-02-02T04:15:13;100600;;;2.8723;36.45147
46174;BME280;31897;52.420;13.498;2023-02-02T04:18:14;100600;;;2.78154;36.56773
46174;BME280;31897;52.420;13.498;2023-02-02T04:21:15;100600;;;2.85518;36.44582
46174;BME280;31897;52.420;13.498;2023-02-02T04:24:16;100600;;;2.84226;36.52684
46174;BME280;31897;52.420;13.498;2023-02-02T04:27:17;100600;;;2.93206;36.39322
46174;BME280;31897;52.420;13.498;2023-02-02T04:30:18;100700;;;2.96113;36.30626
46174;BME280;31897;52.420;13.498;2023-02-02T04:33:19;100700;;;2.95758;36.24268
46174;BME280;31897;52.420;13.498;2023-02-02T04:36:20;100700;;;2.93949;36.40472
46174;BME280;31897;52.420;13.498;2023-02-02T04:39:21;100700;;;2.9999;36.50837
46174;BME280;31897;52.420;13.498;2023-02-02T04:42:22;100700;;;2.92657;36.60718
46174;BME280;31897;52.420;13.498;2023-02-02T04:45:22;100700;;;2.955;36.60699
46174;BME280;31897;52.420;13.498;2023-02-02T04:48:23;100700;;;2.96307;36.54332
46174;BME280;31897;52.420;13.498;2023-02-02T04:51:24;100700;;;3.00377;36.43316
46174;BME280;31897;52.420;13.498;2023-02-02T04:54:25;100700;;;2.84549;36.45745
46174;BME280;31897;52.420;13.498;2023-02-02T04:57:25;100700;;;2.8778;36.48034
46174;BME280;31897;52.420;13.498;2023-02-02T05:00:26;100700;;;2.84065;36.56154
46174;BME280;31897;52.420;13.498;2023-02-02T05:03:27;100700;;;2.92948;36.42793
46174;BME280;31897;52.420;13.498;2023-02-02T05:06:28;100700;;;2.81319;36.52705
46174;BME280;31897;52.420;13.498;2023-02-02T05:09:28;100700;;;2.82805;36.59053
46174;BME280;31897;52.420;13.498;2023-02-02T05:12:29;100700;;;2.80447;36.67739
46174;BME280;31897;52.420;13.498;2023-02-02T05:15:30;100700;;;2.87327;36.71161
46174;BME280;31897;52.420;13.498;2023-02-02T05:18:31;100700;;;2.83516;36.78701
46174;BME280;31897;52.420;13.498;2023-02-02T05:21:31;100700;;;2.76086;36.95508
46174;BME280;31897;52.420;13.498;2023-02-02T05:24:32;100700;;;2.84194;37.07018
46174;BME280;31897;52.420;13.498;2023-02-02T05:27:33;100800;;;2.79898;37.46339
46174;BME280;31897;52.420;13.498;2023-02-02T05:30:34;100800;;;2.84097;37.39961
46174;BME280;31897;52.420;13.498;2023-02-02T05:33:34;100800;;;2.84097;37.52097
46174;BME280;31897;52.420;13.498;2023-02-02T05:36:35;100800;;;2.9017;37.37618
46174;BME280;31897;52.420;13.498;2023-02-02T05:39:36;100800;;;2.91785;37.36454
46174;BME280;31897;52.420;13.498;2023-02-02T05:42:37;100800;;;2.89556;37.35887
46174;BME280;31897;52.420;13.498;2023-02-02T05:45:38;100800;;;2.92237;37.26625
46174;BME280;31897;52.420;13.498;2023-02-02T05:48:38;100800;;;2.91107;37.1507
46174;BME280;31897;52.420;13.498;2023-02-02T05:51:40;100800;;;2.75731;37.00133
46174;BME280;31897;52.420;13.498;2023-02-02T05:54:42;100800;;;2.85034;36.94875
46174;BME280;31897;52.420;13.498;2023-02-02T05:57:43;100800;;;2.89911;36.86174
46174;BME280;31897;52.420;13.498;2023-02-02T06:00:44;100800;;;2.89879;36.86174
46174;BME280;31897;52.420;13.498;2023-02-02T06:03:45;100800;;;2.90622;36.67092
46174;BME280;31897;52.420;13.498;2023-02-02T06:06:45;100800;;;2.86423;36.62496
46174;BME280;31897;52.420;13.498;2023-02-02T06:09:46;100800;;;2.92786;36.5031
46174;BME280;31897;52.420;13.498;2023-02-02T06:12:47;100800;;;2.97082;36.41606
46174;BME280;31897;52.420;13.498;2023-02-02T06:15:48;100800;;;3.00119;36.31174
46174;BME280;31897;52.420;13.498;2023-02-02T06:18:49;100800;;;2.98762;36.32341
46174;BME280;31897;52.420;13.498;2023-02-02T06:21:50;100800;;;3.07806;36.30536
46174;BME280;31897;52.420;13.498;2023-02-02T06:24:50;100800;;;3.0926;36.22427
46174;BME280;31897;52.420;13.498;2023-02-02T06:27:54;100800;;;3.08323;36.24748
46174;BME280;31897;52.420;13.498;2023-02-02T06:30:54;100800;;;3.03446;36.21894
46174;BME280;31897;52.420;13.498;2023-02-02T06:33:56;100900;;;3.08646;36.13755
46174;BME280;31897;52.420;13.498;2023-02-02T06:36:57;100900;;;3.08388;36.08551
46174;BME280;31897;52.420;13.498;2023-02-02T06:39:58;100900;;;3.10261;35.92916
46174;BME280;31897;52.420;13.498;2023-02-02T06:42:59;100900;;;3.05093;35.91225
46174;BME280;31897;52.420;13.498;2023-02-02T06:46:00;100900;;;2.99634;35.83175
46174;BME280;31897;52.420;13.498;2023-02-02T06:49:01;100900;;;2.98633;35.76821
46174;BME280;31897;52.420;13.498;2023-02-02T06:52:02;100900;;;2.92786;35.80343
46174;BME280;31897;52.420;13.498;2023-02-02T06:55:03;100900;;;2.9831;35.75668
46174;BME280;31897;52.420;13.498;2023-02-02T06:58:04;100900;;;2.99311;35.61198
46174;BME280;31897;52.420;13.498;2023-02-02T07:01:05;100900;;;3.01992;35.51918
46174;BME280;31897;52.420;13.498;2023-02-02T07:04:06;100900;;;3.07387;35.2641
46174;BME280;31897;52.420;13.498;2023-02-02T07:07:07;100900;;;3.07096;35.14841
46174;BME280;31897;52.420;13.498;2023-02-02T07:10:08;100900;;;3.06547;34.96332
46174;BME280;31897;52.420;13.498;2023-02-02T07:13:09;100900;;;3.08033;34.7722
46174;BME280;31897;52.420;13.498;2023-02-02T07:16:10;100900;;;3.11263;34.70239
46174;BME280;31897;52.420;13.498;2023-02-02T07:19:10;100900;;;3.10003;34.32056
46174;BME280;31897;52.420;13.498;2023-02-02T07:22:11;100900;;;3.13039;34.22179
46174;BME280;31897;52.420;13.498;2023-02-02T07:25:12;101000;;;3.1782;33.97225
46174;BME280;31897;52.420;13.498;2023-02-02T07:28:13;101000;;;3.21405;33.71701
46174;BME280;31897;52.420;13.498;2023-02-02T07:31:14;101000;;;3.20372;33.65926
46174;BME280;31897;52.420;13.498;2023-02-02T07:34:16;101000;;;3.26251;33.6237
46174;BME280;31897;52.420;13.498;2023-02-02T07:37:17;101000;;;3.28512;33.48439
46174;BME280;31897;52.420;13.498;2023-02-02T07:40:18;101000;;;3.39074;33.40177
46174;BME280;31897;52.420;13.498;2023-02-02T07:43:19;101000;;;3.39559;33.34376
46174;BME280;31897;52.420;13.498;2023-02-02T07:46:20;101000;;;3.31387;33.37392
46174;BME280;31897;52.420;13.498;2023-02-02T07:49:20;101000;;;3.30159;33.44361
46174;BME280;31897;52.420;13.498;2023-02-02T07:52:21;101000;;;3.33809;33.4257
46174;BME280;31897;52.420;13.498;2023-02-02T07:55:22;101000;;;3.37427;33.4078
46174;BME280;31897;52.420;13.498;2023-02-02T07:58:23;101000;;;3.43467;33.40693
46174;BME280;31897;52.420;13.498;2023-02-02T08:01:24;101000;;;3.50768;33.41166
46174;BME280;31897;52.420;13.498;2023-02-02T08:04:25;101000;;;3.56065;33.31237
46174;BME280;31897;52.420;13.498;2023-02-02T08:07:26;101000;;;3.6821;33.28738
46174;BME280;31897;52.420;13.498;2023-02-02T08:10:26;101000;;;3.94956;33.12096
46174;BME280;31897;52.420;13.498;2023-02-02T08:13:27;101000;;;3.96991;33.29468
46174;BME280;31897;52.420;13.498;2023-02-02T08:16:28;101000;;;3.95118;33.36457
46174;BME280;31897;52.420;13.498;2023-02-02T08:19:29;101000;;;3.97056;33.4803
46174;BME280;31897;52.420;13.498;2023-02-02T08:22:30;101000;;;4.03322;33.43878
46174;BME280;31897;52.420;13.498;2023-02-02T08:25:31;101000;;;3.99575;33.52634
46174;BME280;31897;52.420;13.498;2023-02-02T08:28:32;101000;;;4.06488;33.59497
46174;BME280;31897;52.420;13.498;2023-02-02T08:31:33;101000;;;4.06973;33.6123
46174;BME280;31897;52.420;13.498;2023-02-02T08:34:34;101000;;;4.10687;33.65239
46174;BME280;31897;52.420;13.498;2023-02-02T08:37:35;101100;;;4.13304;33.73325
46174;BME280;31897;52.420;13.498;2023-02-02T08:40:36;101100;;;4.20055;33.7323
46174;BME280;31897;52.420;13.498;2023-02-02T08:43:37;101100;;;4.41665;33.63635
46174;BME280;31897;52.420;13.498;2023-02-02T08:46:38;101100;;;4.76196;33.24783
46174;BME280;31897;52.420;13.498;2023-02-02T08:49:39;101100;;;4.61627;33.07578
46174;BME280;31897;52.420;13.498;2023-02-02T08:52:40;101100;;;4.50548;33.2111
46174;BME280;31897;52.420;13.498;2023-02-02T08:55:40;101100;;;4.40502;33.24746
46174;BME280;31897;52.420;13.498;2023-02-02T08:58:43;101100;;;4.54618;32.97811
46174;BME280;31897;52.420;13.498;2023-02-02T09:01:44;101100;;;4.68023;32.84813
46174;BME280;31897;52.420;13.498;2023-02-02T09:04:44;101100;;;4.6854;32.6679
46174;BME280;31897;52.420;13.498;2023-02-02T09:07:45;101100;;;4.76196;32.43992
46174;BME280;31897;52.420;13.498;2023-02-02T09:10:46;101100;;;4.87921;32.26346
46174;BME280;31897;52.420;13.498;2023-02-02T09:13:47;101100;;;5.24746;31.75057
46174;BME280;31897;52.420;13.498;2023-02-02T09:16:48;101100;;;5.17575;31.76357
46174;BME280;31897;52.420;13.498;2023-02-02T09:19:49;101100;;;5.30399;31.71457
46174;BME280;31897;52.420;13.498;2023-02-02T09:22:50;101100;;;5.32305;31.53955
46174;BME280;31897;52.420;13.498;2023-02-02T09:25:50;101100;;;5.29042;31.59257
46174;BME280;31897;52.420;13.498;2023-02-02T09:28:52;101100;;;5.32369;31.06211
46174;BME280;31897;52.420;13.498;2023-02-02T09:31:53;101100;;;5.16896;31.43197
46174;BME280;31897;52.420;13.498;2023-02-02T09:34:54;101100;;;5.53947;31.08096
46174;BME280;31897;52.420;13.498;2023-02-02T09:37:55;101100;;;5.42512;30.72803
46174;BME280;31897;52.420;13.498;2023-02-02T09:40:55;101100;;;5.53204;30.784
46174;BME280;31897;52.420;13.498;2023-02-02T09:43:58;101100;;;5.52558;30.70257
46174;BME280;31897;52.420;13.498;2023-02-02T09:47:05;101100;;;5.49845;30.54586
46174;BME280;31897;52.420;13.498;2023-02-02T09:50:12;101100;;;5.34792;30.72385
46174;BME280;31897;52.420;13.498;2023-02-02T09:53:19;101100;;;6.23624;29.74761
46174;BME280;31897;52.420;13.498;2023-02-02T09:56:21;101100;;;7.26217;28.67538
46174;BME280;31897;52.420;13.498;2023-02-02T09:59:24;101100;;;9.36124;26.50666
46174;BME280;31897;52.420;13.498;2023-02-02T10:02:27;101100;;;8.63764;26.94115
46174;BME280;31897;52.420;13.498;2023-02-02T10:05:33;101100;;;7.88917;27.52135
46174;BME280;31897;52.420;13.498;2023-02-02T10:08:37;101100;;;7.5852;27.70608
46174;BME280;31897;52.420;13.498;2023-02-02T10:11:43;101100;;;7.87044;27.17014
46174;BME280;31897;52.420;13.498;2023-02-02T10:14:48;101100;;;7.8446;26.93054
46174;BME280;31897;52.420;13.498;2023-02-02T10:17:53;101200;;;7.03218;27.52898
46174;BME280;31897;52.420;13.498;2023-02-02T10:20:56;101200;;;6.49756;28.08219
46174;BME280;31897;52.420;13.498;2023-02-02T10:23:58;101200;;;6.35705;28.20292
46174;BME280;31897;52.420;13.498;2023-02-02T10:27:02;101200;;;6.37934;28.03873
46174;BME280;31897;52.420;13.498;2023-02-02T10:30:06;101200;;;7.32613;27.26272
46174;BME280;31897;52.420;13.498;2023-02-02T10:33:11;101200;;;6.93365;27.05797
46174;BME280;31897;52.420;13.498;2023-02-02T10:36:15;101200;;;6.56055;27.23876
46174;BME280;31897;52.420;13.498;2023-02-02T10:39:23;101200;;;6.88875;26.85456
46174;BME280;31897;52.420;13.498;2023-02-02T10:42:29;101200;;;7.55451;25.93152
46174;BME280;31897;52.420;13.498;2023-02-02T10:45:34;101200;;;8.08526;25.59116
46174;BME280;31897;52.420;13.498;2023-02-02T10:48:35;101200;;;9.44523;24.76737
46174;BME280;31897;52.420;13.498;2023-02-02T10:51:36;101200;;;9.71012;24.05654
46174;BME280;31897;52.420;13.498;2023-02-02T10:54:42;101200;;;9.66877;23.79858
46174;BME280;31897;52.420;13.498;2023-02-02T10:57:47;101200;;;10.62788;23.22418
46174;BME280;31897;52.420;13.498;2023-02-02T11:00:50;101200;;;9.7224;23.41368
46174;BME280;31897;52.420;13.498;2023-02-02T11:03:51;101200;;;9.27951;23.05426
46174;BME280;31897;52.420;13.498;2023-02-02T11:06:52;101200;;;8.9736;23.40194
46174;BME280;31897;52.420;13.498;2023-02-02T11:09:53;101200;;;8.45384;23.26361
46174;BME280;31897;52.420;13.498;2023-02-02T11:12:54;101200;;;7.99384;23.49307
46174;BME280;31897;52.420;13.498;2023-02-02T11:19:28;101200;;;7.58036;24.29495
46174;BME280;31897;52.420;13.498;2023-02-02T11:22:30;101200;;;7.80551;24.26905
46174;BME280;31897;52.420;13.498;2023-02-02T11:25:33;101200;;;7.75059;24.28868
46174;BME280;31897;52.420;13.498;2023-02-02T11:28:34;101200;;;7.56097;24.36603
46174;BME280;31897;52.420;13.498;2023-02-02T11:31:35;101200;;;7.5613;24.3191
46174;BME280;31897;52.420;13.498;2023-02-02T11:34:37;101200;;;8.06393;24.12447
46174;BME280;31897;52.420;13.498;2023-02-02T11:37:37;101200;;;8.07363;24.00081
46174;BME280;31897;52.420;13.498;2023-02-02T11:40:39;101200;;;8.43316;23.7287
46174;BME280;31897;52.420;13.498;2023-02-02T11:43:46;101200;;;8.3495;23.62028
46174;BME280;31897;52.420;13.498;2023-02-02T11:46:47;101200;;;8.21318;23.75475
46174;BME280;31897;52.420;13.498;2023-02-02T11:49:48;101200;;;8.75846;23.4986
46174;BME280;31897;52.420;13.498;2023-02-02T11:52:50;101200;;;8.5165;23.68436
46174;BME280;31897;52.420;13.498;2023-02-02T11:55:51;101200;;;8.26971;23.81136
46174;BME280;31897;52.420;13.498;2023-02-02T11:58:53;101200;;;7.94054;24.06451
46174;BME280;31897;52.420;13.498;2023-02-02T12:02:13;101200;;;7.54967;24.29021
46174;BME280;31897;52.420;13.498;2023-02-02T12:05:35;101200;;;7.13135;24.82691
46174;BME280;31897;52.420;13.498;2023-02-02T12:08:36;101200;;;7.04607;24.88849
46174;BME280;31897;52.420;13.498;2023-02-02T12:11:38;101200;;;6.92816;25.16192
46174;BME280;31897;52.420;13.498;2023-02-02T12:14:46;101300;;;6.8978;25.40884
46174;BME280;31897;52.420;13.498;2023-02-02T12:17:54;101300;;;6.75146;25.56594
46174;BME280;31897;52.420;13.498;2023-02-02T12:20:57;101300;;;6.61224;26.11455
46174;BME280;31897;52.420;13.498;2023-02-02T12:24:07;101300;;;6.43748;26.6229
46174;BME280;31897;52.420;13.498;2023-02-02T12:27:16;101300;;;6.18649;27.34331
46174;BME280;31897;52.420;13.498;2023-02-02T12:30:25;101300;;;6.03564;28.09498
46174;BME280;31897;52.420;13.498;2023-02-02T12:33:29;101300;;;5.80435;28.84221
46174;BME280;31897;52.420;13.498;2023-02-02T12:36:36;101300;;;5.48779;29.96346
46174;BME280;31897;52.420;13.498;2023-02-02T12:39:44;101300;;;5.40735;30.24495
46174;BME280;31897;52.420;13.498;2023-02-02T12:42:51;101300;;;5.82632;29.93228
46174;BME280;31897;52.420;13.498;2023-02-02T12:45:57;101300;;;5.85959;30.1531
46174;BME280;31897;52.420;13.498;2023-02-02T12:49:06;101300;;;9.50952;26.50774
46174;BME280;31897;52.420;13.498;2023-02-02T12:52:16;101300;;;13.99177;22.64014
46174;BME280;31897;52.420;13.498;2023-02-02T12:55:24;101300;;;15.53533;21.21178
46174;BME280;31897;52.420;13.498;2023-02-02T12:58:30;101300;;;15.95951;20.61191
46174;BME280;31897;52.420;13.498;2023-02-02T13:01:37;101300;;;17.72117;18.91124
46174;BME280;31897;52.420;13.498;2023-02-02T13:04:47;101300;;;18.78762;16.78907
46174;BME280;31897;52.420;13.498;2023-02-02T13:07:51;101300;;;17.41652;17.24552
46174;BME280;31897;52.420;13.498;2023-02-02T13:10:54;101300;;;13.84963;19.33624
46174;BME280;31897;52.420;13.498;2023-02-02T13:13:59;101300;;;11.85125;20.76915
46174;BME280;31897;52.420;13.498;2023-02-02T13:17:06;101300;;;10.44278;21.77301
46174;BME280;31897;52.420;13.498;2023-02-02T13:20:15;101300;;;9.28856;22.65951
46174;BME280;31897;52.420;13.498;2023-02-02T13:23:18;101300;;;8.52103;23.39029
46174;BME280;31897;52.420;13.498;2023-02-02T13:26:21;101400;;;8.12531;23.88143
46174;BME280;31897;52.420;13.498;2023-02-02T13:29:25;101400;;;7.80939;24.31585
46174;BME280;31897;52.420;13.498;2023-02-02T13:32:29;101400;;;7.68566;24.50809
46174;BME280;31897;52.420;13.498;2023-02-02T13:35:33;101400;;;7.4463;24.54609
46174;BME280;31897;52.420;13.498;2023-02-02T13:38:36;101400;;;7.42918;24.68152
46174;BME280;31897;52.420;13.498;2023-02-02T13:41:37;101400;;;7.42272;24.79312
46174;BME280;31897;52.420;13.498;2023-02-02T13:44:38;101400;;;7.42498;24.85165
46174;BME280;31897;52.420;13.498;2023-02-02T13:47:43;101400;;;7.42207;24.9807
46174;BME280;31897;52.420;13.498;2023-02-02T13:50:53;101400;;;7.49863;25.07766
46174;BME280;31897;52.420;13.498;2023-02-02T13:54:06;101400;;;7.57616;25.09253
46174;BME280;31897;52.420;13.498;2023-02-02T13:57:17;101400;;;7.36554;25.18779
46174;BME280;31897;52.420;13.498;2023-02-02T14:00:24;101400;;;7.23116;25.37404
46174;BME280;31897;52.420;13.498;2023-02-02T14:03:27;101400;;;7.16171;25.38813
46174;BME280;31897;52.420;13.498;2023-02-02T14:06:34;101400;;;7.21759;25.46236
46174;BME280;31897;52.420;13.498;2023-02-02T14:09:49;101400;;;7.27671;25.50722
46174;BME280;31897;52.420;13.498;2023-02-02T14:12:50;101400;;;7.09484;25.63635
46174;BME280;31897;52.420;13.498;2023-02-02T14:15:51;101400;;;6.98824;25.71017
46174;BME280;31897;52.420;13.498;2023-02-02T14:18:55;101400;;;6.87615;25.66124
46174;BME280;31897;52.420;13.498;2023-02-02T14:21:58;101500;;;6.82447;25.86778
46174;BME280;31897;52.420;13.498;2023-02-02T14:24:59;101500;;;6.84514;25.80272
46174;BME280;31897;52.420;13.498;2023-02-02T14:28:00;101500;;;6.73822;25.87647
46174;BME280;31897;52.420;13.498;2023-02-02T14:31:52;101500;;;6.65552;25.87334
46174;BME280;31897;52.420;13.498;2023-02-02T14:34:54;101500;;;6.62128;26.10841
46174;BME280;31897;52.420;13.498;2023-02-02T14:37:55;101500;;;6.60513;26.15571
46174;BME280;31897;52.420;13.498;2023-02-02T14:40:57;101500;;;6.54085;26.26303
46174;BME280;31897;52.420;13.498;2023-02-02T14:44:02;101500;;;6.35188;26.4853
46174;BME280;31897;52.420;13.498;2023-02-02T14:47:15;101500;;;6.29277;26.55728
46174;BME280;31897;52.420;13.498;2023-02-02T14:50:40;101500;;;6.14708;26.63776
46174;BME280;31897;52.420;13.498;2023-02-02T14:53:45;101500;;;5.94648;26.48048
46174;BME280;31897;52.420;13.498;2023-02-02T14:56:48;101500;;;5.85442;26.43665
46174;BME280;31897;52.420;13.498;2023-02-02T14:59:50;101600;;;5.77948;26.45067
46174;BME280;31897;52.420;13.498;2023-02-02T15:02:52;101600;;;5.74104;26.38184
46174;BME280;31897;52.420;13.498;2023-02-02T15:06:00;101600;;;5.68709;26.37186
46174;BME280;31897;52.420;13.498;2023-02-02T15:12:34;101600;;;5.61926;26.31565
46174;BME280;31897;52.420;13.498;2023-02-02T15:15:36;101600;;;5.51524;26.16142
46174;BME280;31897;52.420;13.498;2023-02-02T15:18:39;101600;;;5.45129;26.25094
46174;BME280;31897;52.420;13.498;2023-02-02T15:21:41;101600;;;5.2691;26.1984
46174;BME280;31897;52.420;13.498;2023-02-02T15:24:44;101600;;;5.05365;26.29262
46174;BME280;31897;52.420;13.498;2023-02-02T15:27:49;101600;;;4.91733;26.31437
46174;BME280;31897;52.420;13.498;2023-02-02T15:30:51;101600;;;4.83625;26.49164